EA3GKP-2 Weather Reports


time (UTC)temp
C
wind
direction
speed
KPH
gust
KPH
rain 1hr
cm
rain 24hr
cm
rain mn
cm
humidity
%
barometer
mb
20190422081637 15 126 0.0 0.0 0.00 0.00 0.00 74 999.0
20190422075720 15 125 0.0 0.0 0.00 0.00 0.00 74 999.0
20190422073805 14 126 0.0 0.0 0.00 0.00 0.00 75 1000.0
20190422072828 13 125 0.0 0.0 0.00 0.00 0.00 74 1000.0
20190422071850 13 126 0.0 0.0 0.00 0.00 0.00 74 1000.0
20190422070912 12 126 0.0 0.0 0.00 0.00 0.00 74 999.0
20190422064957 12 126 0.0 0.0 0.00 0.00 0.00 72 999.0
20190422064018 14 124 0.0 0.0 0.00 0.00 0.00 72 1000.0
20190422060147 14 125 0.0 0.0 0.00 0.00 0.00 72 999.0
20190422054237 14 127 0.0 0.0 0.00 0.00 0.00 74 999.0
20190422052317 13 124 0.0 0.0 0.00 0.00 0.00 72 1000.0
20190422051339 13 124 0.0 0.0 0.00 0.00 0.00 72 1000.0
20190422050401 13 125 0.0 0.0 0.00 0.00 0.00 72 1000.0
20190422045424 13 124 0.0 0.0 0.00 0.00 0.00 72 1000.0
20190422044447 13 119 0.0 0.0 0.00 0.00 0.00 59 999.0
20190422043508 13 126 0.0 0.0 0.00 0.00 0.00 74 999.0
20190422042530 13 126 0.0 0.0 0.00 0.00 0.00 74 1000.0
20190422041552 13 126 0.0 0.0 0.00 0.00 0.00 74 1000.0
20190422040615 13 125 0.0 0.0 0.00 0.00 0.00 74 1000.0
20190422034659 13 124 0.0 0.0 0.00 0.00 0.00 72 1000.0
20190422033721 13 126 0.0 0.0 0.00 0.00 0.00 74 1001.0
20190422032744 13 127 0.0 0.0 0.00 0.00 0.00 74 1001.0
20190422030828 13 126 0.0 0.0 0.00 0.00 0.00 74 1001.0
20190422025851 13 127 0.0 0.0 0.00 0.00 0.00 74 1001.0
20190422024913 13 125 0.0 0.0 0.00 0.00 0.00 74 1001.0
20190422023935 13 124 0.0 0.0 0.00 0.00 0.00 72 1001.0
20190422022957 13 127 0.0 0.0 0.00 0.00 0.00 74 1001.0
20190422022019 14 126 0.0 0.0 0.00 0.00 0.00 74 1001.0
20190422021042 14 126 0.0 0.0 0.00 0.00 0.00 74 1001.0
20190422020104 14 124 0.0 0.0 0.00 0.00 0.00 74 1002.0
20190422015126 14 125 0.0 0.0 0.00 0.00 0.00 74 1002.0
20190422014148 14 124 0.0 0.0 0.00 0.00 0.00 72 1002.0
20190422013211 14 126 0.0 0.0 0.00 0.00 0.00 74 1002.0
20190422012233 14 126 0.0 0.0 0.00 0.00 0.00 74 1002.0
20190422010318 14 126 0.0 0.0 0.00 0.00 0.00 74 1003.0
20190422005339 14 126 0.0 0.0 0.00 0.00 0.00 74 1003.0
20190422004402 14 124 0.0 0.0 0.00 0.00 0.00 70 1003.0
20190422003424 14 124 0.0 0.0 0.00 0.00 0.00 72 1004.0
20190422002447 14 126 0.0 0.0 0.00 0.00 0.00 74 1004.0
20190422001509 14 124 0.0 0.0 0.00 0.00 0.00 72 1004.0
20190422000531 14 124 0.0 0.0 0.00 0.00 0.00 72 1004.0
20190421235601 14 124 0.0 0.0 0.00 0.00 0.00 72 1004.0
20190421234615 14 124 0.0 0.0 0.00 0.00 0.00 72 1004.0
20190421233638 14 125 0.0 0.0 0.00 0.00 0.00 72 1004.0
20190421232659 13 124 0.0 0.0 0.00 0.00 0.00 72 1004.0
20190421231722 13 126 0.0 0.0 0.00 0.00 0.00 74 1004.0
20190421230745 13 125 0.0 0.0 0.00 0.00 0.00 74 1004.0
20190421225806 13 124 0.0 0.0 0.00 0.00 0.00 72 1005.0
20190421223851 13 126 0.0 0.0 0.00 0.00 0.00 74 1005.0
20190421222914 13 126 0.0 0.0 0.00 0.00 0.00 74 1005.0
20190421221935 13 124 0.0 0.0 0.00 0.00 0.00 72 1005.0
20190421220958 13 124 0.0 0.0 0.00 0.00 0.00 72 1005.0
20190421220022 13 125 0.0 0.0 0.00 0.00 0.00 74 1005.0
20190421215042 13 125 0.0 0.0 0.00 0.00 0.00 72 1005.0
20190421213126 13 125 0.0 0.0 0.00 0.00 0.00 74 1006.0
20190421212149 13 126 0.0 0.0 0.00 0.00 0.00 74 1006.0
20190421211212 13 124 0.0 0.0 0.00 0.00 0.00 72 1006.0
20190421210233 13 125 0.0 0.0 0.00 0.00 0.00 74 1006.0
20190421204318 13 125 0.0 0.0 0.00 0.00 0.00 74 1006.0
20190421203340 13 126 0.0 0.0 0.00 0.00 0.00 74 1006.0
20190421202402 13 125 0.0 0.0 0.00 0.00 0.00 74 1006.0
20190421201425 14 124 0.0 0.0 0.00 0.00 0.00 72 1006.0
20190421200447 14 125 0.0 0.0 0.00 0.00 0.00 72 1006.0
20190421195509 14 126 0.0 0.0 0.00 0.00 0.00 74 1006.0
20190421194532 14 125 0.0 0.0 0.00 0.00 0.00 74 1006.0
20190421193554 14 125 0.0 0.0 0.00 0.00 0.00 74 1007.0
20190421192616 15 126 0.0 0.0 0.00 0.00 0.00 74 1006.0
20190421191639 15 124 0.0 0.0 0.00 0.00 0.00 72 1006.0
20190421190700 15 124 0.0 0.0 0.00 0.00 0.00 72 1006.0
20190421185723 15 126 0.0 0.0 0.00 0.00 0.00 74 1006.0
20190421184745 14 125 0.0 0.0 0.00 0.00 0.00 74 1006.0
20190421183807 14 126 0.0 0.0 0.00 0.00 0.00 74 1006.0
20190421182829 14 126 0.0 0.0 0.00 0.00 0.00 74 1006.0
20190421180914 15 126 0.0 0.0 0.00 0.00 0.00 74 1006.0
20190421175936 15 127 0.0 0.0 0.00 0.00 0.00 74 1006.0
20190421174020 15 124 0.0 0.0 0.00 0.00 0.00 72 1007.0
20190421173043 15 126 0.0 0.0 0.00 0.00 0.00 74 1007.0
20190421172106 16 124 0.0 0.0 0.00 0.00 0.00 72 1007.0
20190421171127 16 126 0.0 0.0 0.00 0.00 0.00 74 1007.0
20190421170150 16 124 0.0 0.0 0.00 0.00 0.00 72 1007.0
20190421165212 16 126 0.0 0.0 0.00 0.00 0.00 74 1007.0
20190421164234 16 126 0.0 0.0 0.00 0.00 0.00 74 1007.0
20190421162319 16 125 0.0 0.0 0.00 0.00 0.00 72 1007.0
20190421161341 16 126 0.0 0.0 0.00 0.00 0.00 74 1007.0
20190421160403 16 124 0.0 0.0 0.00 0.00 0.00 72 1007.0
20190421155426 16 126 0.0 0.0 0.00 0.00 0.00 74 1007.0
20190421154447 16 126 0.0 0.0 0.00 0.00 0.00 74 1007.0
20190421153510 16 126 0.0 0.0 0.00 0.00 0.00 74 1007.0
20190421152532 16 127 0.0 0.0 0.00 0.00 0.00 74 1008.0
20190421151555 16 127 0.0 0.0 0.00 0.00 0.00 74 1008.0
20190421150616 17 126 0.0 0.0 0.00 0.00 0.00 74 1008.0
20190421145640 17 124 0.0 0.0 0.00 0.00 0.00 72 1008.0
20190421144702 17 126 0.0 0.0 0.00 0.00 0.00 74 1008.0
20190421143723 17 124 0.0 0.0 0.00 0.00 0.00 72 1008.0
20190421142746 17 126 0.0 0.0 0.00 0.00 0.00 74 1008.0
20190421141807 17 125 0.0 0.0 0.00 0.00 0.00 74 1008.0
20190421140830 16 126 0.0 0.0 0.00 0.00 0.00 74 1008.0
20190421135853 16 124 0.0 0.0 0.00 0.00 0.00 72 1009.0
20190421134915 16 127 0.0 0.0 0.00 0.00 0.00 75 1009.0
20190421133937 16 127 0.0 0.0 0.00 0.00 0.00 74 1009.0
20190421132021 16 127 0.0 0.0 0.00 0.00 0.00 74 1009.0
20190421131043 16 126 0.0 0.0 0.00 0.00 0.00 74 1009.0
20190421130106 17 126 0.0 0.0 0.00 0.00 0.00 74 1009.0
20190421125129 17 126 0.0 0.0 0.00 0.00 0.00 74 1009.0
20190421124150 17 124 0.0 0.0 0.00 0.00 0.00 72 1009.0
20190421123213 17 127 0.0 0.0 0.00 0.00 0.00 74 1009.0
20190421122234 17 126 0.0 0.0 0.00 0.00 0.00 74 1009.0
20190421121257 17 126 0.0 0.0 0.00 0.00 0.00 74 1010.0
20190421120319 17 126 0.0 0.0 0.00 0.00 0.00 74 1010.0
20190421115341 16 125 0.0 0.0 0.00 0.00 0.00 72 1010.0
20190421114404 16 124 0.0 0.0 0.00 0.00 0.00 72 1010.0
20190421113427 16 127 0.0 0.0 0.00 0.00 0.00 74 1010.0
20190421112448 16 126 0.0 0.0 0.00 0.00 0.00 74 1010.0
20190421111511 16 126 0.0 0.0 0.00 0.00 0.00 74 1010.0
20190421110534 16 126 0.0 0.0 0.00 0.00 0.00 74 1010.0
20190421105556 16 124 0.0 0.0 0.00 0.00 0.00 72 1010.0
20190421103640 16 126 0.0 0.0 0.00 0.00 0.00 74 1010.0
20190421102702 16 124 0.0 0.0 0.00 0.00 0.00 72 1011.0
20190421101733 16 125 0.0 0.0 0.00 0.00 0.00 74 1011.0
20190421100746 15 126 0.0 0.0 0.00 0.00 0.00 74 1011.0
20190421095810 15 126 0.0 0.0 0.00 0.00 0.00 74 1011.0
20190421094830 15 125 0.0 0.0 0.00 0.00 0.00 74 1011.0
20190421093853 15 125 0.0 0.0 0.00 0.00 0.00 74 1011.0
20190421091937 14 125 0.0 0.0 0.00 0.00 0.00 74 1011.0
20190421091000 14 125 0.0 0.0 0.00 0.00 0.00 74 1011.0
20190421090022 14 125 0.0 0.0 0.00 0.00 0.00 72 1011.0
20190421085044 14 125 0.0 0.0 0.00 0.00 0.00 74 1011.0
20190421084107 15 126 0.0 0.0 0.00 0.00 0.00 74 1011.0
20190421082151 15 124 0.0 0.0 0.00 0.00 0.00 72 1011.0